createdAt,value
2017-07-26T00:01:00.588Z,0
2017-07-26T00:02:02.095Z,0
2017-07-26T00:03:03.668Z,0
2017-07-26T00:04:05.305Z,0
2017-07-26T00:05:06.838Z,0
2017-07-26T00:06:08.299Z,0
2017-07-26T00:07:09.764Z,0
2017-07-26T00:08:11.269Z,0
2017-07-26T00:09:12.768Z,0
2017-07-26T00:10:14.262Z,0
2017-07-26T00:11:15.761Z,0
2017-07-26T00:12:17.267Z,0
2017-07-26T00:13:18.798Z,0
2017-07-26T00:14:20.216Z,0
2017-07-26T00:15:21.723Z,0
2017-07-26T00:16:23.307Z,0
2017-07-26T00:17:24.872Z,0
2017-07-26T00:18:26.354Z,0
2017-07-26T00:19:27.863Z,0
2017-07-26T00:20:29.240Z,0
2017-07-26T00:21:30.947Z,0
2017-07-26T00:22:32.461Z,0
2017-07-26T00:23:34.012Z,0
2017-07-26T00:24:35.527Z,0
2017-07-26T00:25:37.049Z,0
2017-07-26T00:26:38.477Z,0
2017-07-26T00:27:39.982Z,0
2017-07-26T00:28:41.480Z,0
2017-07-26T00:29:42.984Z,0
2017-07-26T00:30:44.516Z,0
2017-07-26T00:31:46.081Z,0
2017-07-26T00:32:47.587Z,0
2017-07-26T00:33:49.199Z,0
2017-07-26T00:34:50.712Z,0
2017-07-26T00:35:52.218Z,0
2017-07-26T00:36:53.635Z,0
2017-07-26T00:37:55.140Z,0
2017-07-26T00:38:56.750Z,0
2017-07-26T00:39:58.263Z,0
2017-07-26T00:40:59.784Z,0
2017-07-26T00:42:01.306Z,0
2017-07-26T00:43:02.804Z,0
2017-07-26T00:44:04.355Z,0
2017-07-26T00:45:05.860Z,0
2017-07-26T00:46:07.471Z,0
2017-07-26T00:47:08.974Z,0
2017-07-26T00:48:10.501Z,0
2017-07-26T00:49:11.931Z,0
2017-07-26T00:50:13.385Z,0
2017-07-26T00:51:14.879Z,0
2017-07-26T00:52:16.384Z,0
2017-07-26T00:53:17.763Z,0
2017-07-26T00:54:19.451Z,0
2017-07-26T00:55:20.969Z,0
2017-07-26T00:56:22.541Z,0
2017-07-26T00:57:24.125Z,0
2017-07-26T00:58:25.630Z,0
2017-07-26T00:59:27.053Z,0
2017-07-26T01:00:28.561Z,0
2017-07-26T01:01:30.138Z,0
2017-07-26T01:02:31.643Z,0
2017-07-26T01:03:33.179Z,0
2017-07-26T01:04:34.596Z,0
2017-07-26T01:05:36.055Z,0
2017-07-26T01:06:37.580Z,0
2017-07-26T01:07:39.087Z,0
2017-07-26T01:08:40.629Z,0
2017-07-26T01:09:42.050Z,0
2017-07-26T01:10:43.555Z,0
2017-07-26T01:11:45.076Z,0
2017-07-26T01:12:46.580Z,0
2017-07-26T01:13:47.952Z,0
2017-07-26T01:14:49.566Z,0
2017-07-26T01:15:51.082Z,0
2017-07-26T01:16:52.631Z,0
2017-07-26T01:17:54.140Z,0
2017-07-26T01:18:55.529Z,0
2017-07-26T01:19:57.641Z,0
2017-07-26T01:20:59.136Z,0
2017-07-26T01:22:00.642Z,0
2017-07-26T01:23:02.195Z,0
2017-07-26T01:24:03.628Z,0
2017-07-26T01:25:05.141Z,0
2017-07-26T01:26:06.776Z,0
2017-07-26T01:27:08.290Z,0
2017-07-26T01:28:09.811Z,0
2017-07-26T01:29:11.256Z,0
2017-07-26T01:30:12.712Z,0
2017-07-26T01:31:14.392Z,0
2017-07-26T01:32:15.902Z,0
2017-07-26T01:33:17.423Z,0
2017-07-26T01:34:18.918Z,0
2017-07-26T01:35:20.413Z,0
2017-07-26T01:36:21.912Z,0
2017-07-26T01:37:23.424Z,0
2017-07-26T01:38:24.926Z,0
2017-07-26T01:39:26.445Z,0
2017-07-26T01:40:27.814Z,0
2017-07-26T01:41:29.432Z,0
2017-07-26T01:42:30.949Z,0
2017-07-26T01:43:32.464Z,0
2017-07-26T01:44:33.885Z,0
2017-07-26T01:45:35.394Z,0
2017-07-26T01:46:37.021Z,0
2017-07-26T01:47:38.535Z,0
2017-07-26T01:48:40.032Z,0
2017-07-26T01:49:41.587Z,0
2017-07-26T01:50:43.089Z,0
2017-07-26T01:51:44.605Z,0
2017-07-26T01:52:46.102Z,0
2017-07-26T01:53:47.605Z,0
2017-07-26T01:54:49.333Z,0
2017-07-26T01:55:50.834Z,0
2017-07-26T01:56:52.342Z,0
2017-07-26T01:57:53.954Z,0
2017-07-26T01:58:55.394Z,0
2017-07-26T01:59:56.912Z,0
2017-07-26T02:00:58.450Z,0
2017-07-26T02:02:00.005Z,0
2017-07-26T02:03:01.556Z,0
2017-07-26T02:04:02.975Z,0
2017-07-26T02:05:04.442Z,0
2017-07-26T02:06:05.961Z,0
2017-07-26T02:07:07.468Z,0
2017-07-26T02:08:08.966Z,0
2017-07-26T02:09:10.484Z,0
2017-07-26T02:10:11.994Z,0
2017-07-26T02:11:13.487Z,0
2017-07-26T02:12:14.985Z,0
2017-07-26T02:13:16.488Z,0
2017-07-26T02:14:18.001Z,0
2017-07-26T02:15:19.518Z,0
2017-07-26T02:16:21.022Z,0
2017-07-26T02:17:22.533Z,0
2017-07-26T02:18:24.047Z,0
2017-07-26T02:19:25.538Z,0
2017-07-26T02:20:27.029Z,0
2017-07-26T02:21:28.548Z,0
2017-07-26T02:22:29.973Z,0
2017-07-26T02:23:31.594Z,0
2017-07-26T02:24:33.085Z,0
2017-07-26T02:25:34.590Z,0
2017-07-26T02:26:36.090Z,0
2017-07-26T02:27:37.515Z,0
2017-07-26T02:28:39.019Z,0
2017-07-26T02:29:40.643Z,0
2017-07-26T02:30:42.141Z,0
2017-07-26T02:31:43.635Z,0
2017-07-26T02:32:45.020Z,0
2017-07-26T02:33:46.530Z,0
2017-07-26T02:34:48.151Z,0
2017-07-26T02:35:49.650Z,0
2017-07-26T02:36:51.155Z,0
2017-07-26T02:37:52.582Z,0
2017-07-26T02:38:54.094Z,0
2017-07-26T02:39:55.764Z,0
2017-07-26T02:40:57.271Z,0
2017-07-26T02:41:58.775Z,0
2017-07-26T02:43:00.279Z,0
2017-07-26T02:44:01.662Z,0
2017-07-26T02:45:03.264Z,0
2017-07-26T02:46:04.784Z,0
2017-07-26T02:47:06.289Z,0
2017-07-26T02:48:07.909Z,0
2017-07-26T02:49:09.410Z,0
2017-07-26T02:50:10.919Z,0
2017-07-26T02:51:12.422Z,0
2017-07-26T02:52:14.073Z,0
2017-07-26T02:53:15.580Z,0
2017-07-26T02:54:17.082Z,0
2017-07-26T02:55:18.617Z,0
2017-07-26T02:56:19.973Z,0
2017-07-26T02:57:21.623Z,0
2017-07-26T02:58:23.143Z,0
2017-07-26T02:59:24.644Z,0
2017-07-26T03:00:26.060Z,0
2017-07-26T03:01:27.569Z,0
2017-07-26T03:02:29.180Z,0
2017-07-26T03:03:30.705Z,0
2017-07-26T03:04:32.239Z,0
2017-07-26T03:05:33.758Z,0
2017-07-26T03:06:35.262Z,0
2017-07-26T03:07:36.764Z,0
2017-07-26T03:08:38.267Z,0
2017-07-26T03:09:39.784Z,0
2017-07-26T03:10:41.297Z,0
2017-07-26T03:11:42.776Z,0
2017-07-26T03:12:44.289Z,0
2017-07-26T03:13:45.802Z,0
2017-07-26T03:14:47.302Z,0
2017-07-26T03:15:48.807Z,0
2017-07-26T03:16:50.196Z,0
2017-07-26T03:17:51.775Z,4
2017-07-26T03:18:53.284Z,4
2017-07-26T03:19:54.781Z,4
2017-07-26T03:20:56.375Z,4
2017-07-26T03:21:57.882Z,4
2017-07-26T03:22:59.370Z,4
2017-07-26T03:24:00.873Z,4
2017-07-26T03:25:02.379Z,8
2017-07-26T03:26:03.809Z,4
2017-07-26T03:27:05.318Z,4
2017-07-26T03:28:06.928Z,4
2017-07-26T03:29:08.443Z,8
2017-07-26T03:30:09.952Z,8
2017-07-26T03:31:11.461Z,8
2017-07-26T03:32:12.826Z,8
2017-07-26T03:33:14.485Z,8
2017-07-26T03:34:15.989Z,8
2017-07-26T03:35:17.496Z,8
2017-07-26T03:36:19.009Z,12
2017-07-26T03:37:20.391Z,12
2017-07-26T03:38:22.017Z,12
2017-07-26T03:39:23.517Z,12
2017-07-26T03:40:25.037Z,16
2017-07-26T03:41:26.599Z,16
2017-07-26T03:42:28.148Z,16
2017-07-26T03:43:29.652Z,16
2017-07-26T03:44:31.161Z,20
2017-07-26T03:45:32.793Z,24
2017-07-26T03:46:34.307Z,20
2017-07-26T03:47:35.809Z,24
2017-07-26T03:48:37.410Z,28
2017-07-26T03:49:38.928Z,36
2017-07-26T03:50:40.348Z,44
2017-07-26T03:51:41.856Z,44
2017-07-26T03:52:43.356Z,40
2017-07-26T03:53:44.778Z,60
2017-07-26T03:54:46.280Z,76
2017-07-26T03:55:47.833Z,80
2017-07-26T03:56:49.330Z,92
2017-07-26T03:57:50.843Z,76
2017-07-26T03:58:52.267Z,88
2017-07-26T03:59:53.776Z,84
2017-07-26T04:00:55.283Z,84
2017-07-26T04:01:56.781Z,96
2017-07-26T04:02:58.279Z,100
2017-07-26T04:03:59.768Z,92
2017-07-26T04:05:01.295Z,104
2017-07-26T04:06:02.797Z,120
2017-07-26T04:07:04.217Z,128
2017-07-26T04:08:05.730Z,124
2017-07-26T04:09:07.295Z,112
2017-07-26T04:10:08.794Z,128
2017-07-26T04:11:10.309Z,128
2017-07-26T04:12:11.732Z,116
2017-07-26T04:13:13.210Z,136
2017-07-26T04:14:14.726Z,152
2017-07-26T04:15:16.221Z,152
2017-07-26T04:16:17.734Z,148
2017-07-26T04:17:19.244Z,148
2017-07-26T04:18:20.743Z,164
2017-07-26T04:19:22.313Z,164
2017-07-26T04:20:23.801Z,164
2017-07-26T04:21:25.311Z,176
2017-07-26T04:22:26.818Z,180
2017-07-26T04:23:28.333Z,172
2017-07-26T04:24:29.919Z,184
2017-07-26T04:25:31.472Z,200
2017-07-26T04:26:32.983Z,196
2017-07-26T04:27:34.415Z,208
2017-07-26T04:28:35.938Z,212
2017-07-26T04:29:37.409Z,236
2017-07-26T04:30:38.916Z,208
2017-07-26T04:31:40.424Z,232
2017-07-26T04:32:41.921Z,232
2017-07-26T04:33:43.425Z,244
2017-07-26T04:34:44.955Z,244
2017-07-26T04:35:46.454Z,248
2017-07-26T04:36:47.967Z,260
2017-07-26T04:37:49.467Z,284
2017-07-26T04:38:50.977Z,288
2017-07-26T04:39:52.519Z,252
2017-07-26T04:40:54.037Z,240
2017-07-26T04:41:55.535Z,248
2017-07-26T04:42:56.993Z,260
2017-07-26T04:43:58.506Z,228
2017-07-26T04:45:00.013Z,240
2017-07-26T04:46:01.515Z,232
2017-07-26T04:47:03.019Z,248
2017-07-26T04:48:04.509Z,252
2017-07-26T04:49:06.022Z,256
2017-07-26T04:50:07.490Z,268
2017-07-26T04:51:08.915Z,308
2017-07-26T04:52:10.377Z,396
2017-07-26T04:53:11.937Z,336
2017-07-26T04:54:13.440Z,404
2017-07-26T04:55:14.947Z,452
2017-07-26T04:56:16.447Z,456
2017-07-26T04:57:17.987Z,464
2017-07-26T04:58:19.616Z,448
2017-07-26T04:59:21.125Z,540
2017-07-26T05:00:22.632Z,516
2017-07-26T05:01:24.056Z,564
2017-07-26T05:02:25.593Z,556
2017-07-26T05:03:27.022Z,620
2017-07-26T05:04:28.544Z,640
2017-07-26T05:05:30.102Z,592
2017-07-26T05:06:31.532Z,564
2017-07-26T05:07:33.087Z,492
2017-07-26T05:08:34.731Z,456
2017-07-26T05:09:36.265Z,484
2017-07-26T05:10:37.853Z,408
2017-07-26T05:11:39.357Z,444
2017-07-26T05:12:40.871Z,484
2017-07-26T05:13:42.302Z,436
2017-07-26T05:14:43.820Z,432
2017-07-26T05:15:45.331Z,668
2017-07-26T05:16:46.908Z,848
2017-07-26T05:17:48.412Z,760
2017-07-26T05:18:49.838Z,864
2017-07-26T05:19:51.400Z,888
2017-07-26T05:20:53.055Z,1060
2017-07-26T05:21:54.574Z,1024
2017-07-26T05:22:56.089Z,944
2017-07-26T05:23:57.594Z,948
2017-07-26T05:24:59.104Z,900
2017-07-26T05:26:00.610Z,884
2017-07-26T05:27:02.127Z,860
2017-07-26T05:28:03.637Z,744
2017-07-26T05:29:05.138Z,764
2017-07-26T05:30:06.651Z,728
2017-07-26T05:31:08.141Z,732
2017-07-26T05:32:09.644Z,728
2017-07-26T05:33:11.162Z,692
2017-07-26T05:34:12.674Z,668
2017-07-26T05:35:14.051Z,856
2017-07-26T05:36:15.803Z,848
2017-07-26T05:37:17.310Z,756
2017-07-26T05:38:18.770Z,1124
2017-07-26T05:39:20.303Z,1068
2017-07-26T05:40:21.842Z,896
2017-07-26T05:41:23.292Z,728
2017-07-26T05:42:24.812Z,788
2017-07-26T05:43:26.481Z,980
2017-07-26T05:44:28.009Z,912
2017-07-26T05:45:29.532Z,832
2017-07-26T05:46:31.064Z,1072
2017-07-26T05:47:32.600Z,1000
2017-07-26T05:48:34.043Z,924
2017-07-26T05:49:35.559Z,916
2017-07-26T05:50:37.080Z,868
2017-07-26T05:51:38.593Z,896
2017-07-26T05:52:40.117Z,1132
2017-07-26T05:53:41.622Z,1372
2017-07-26T05:54:43.130Z,1240
2017-07-26T05:55:44.746Z,1104
2017-07-26T05:56:46.277Z,1032
2017-07-26T05:57:47.806Z,1400
2017-07-26T05:58:49.346Z,1384
2017-07-26T05:59:50.861Z,2324
2017-07-26T06:00:52.391Z,2496
2017-07-26T06:01:53.920Z,2236
2017-07-26T06:02:55.525Z,1876
2017-07-26T06:03:57.047Z,1988
2017-07-26T06:04:58.566Z,2188
2017-07-26T06:06:00.101Z,2228
2017-07-26T06:07:01.618Z,2168
2017-07-26T06:08:03.137Z,2196
2017-07-26T06:09:04.653Z,1976
2017-07-26T06:10:06.174Z,2132
2017-07-26T06:11:07.709Z,1612
2017-07-26T06:12:09.217Z,1636
2017-07-26T06:13:10.727Z,1860
2017-07-26T06:14:12.231Z,1996
2017-07-26T06:15:13.965Z,2212
2017-07-26T06:16:15.475Z,2004
2017-07-26T06:17:17.016Z,1704
2017-07-26T06:18:18.524Z,1828
2017-07-26T06:19:20.040Z,2108
2017-07-26T06:20:21.490Z,1328
2017-07-26T06:21:22.997Z,1560
2017-07-26T06:22:24.619Z,1280
2017-07-26T06:23:26.131Z,1524
2017-07-26T06:24:27.640Z,1564
2017-07-26T06:25:29.091Z,1944
2017-07-26T06:26:30.612Z,2184
2017-07-26T06:27:32.072Z,1472
2017-07-26T06:28:33.593Z,1732
2017-07-26T06:29:35.093Z,1320
2017-07-26T06:30:36.605Z,1756
2017-07-26T06:31:38.126Z,1952
2017-07-26T06:32:39.756Z,1560
2017-07-26T06:33:42.134Z,1848
2017-07-26T06:34:43.630Z,1572
2017-07-26T06:35:45.176Z,1756
2017-07-26T06:36:46.703Z,2232
2017-07-26T06:37:48.162Z,2428
2017-07-26T06:38:49.689Z,2392
2017-07-26T06:39:51.202Z,2264
2017-07-26T06:40:52.723Z,2196
2017-07-26T06:41:54.244Z,2124
2017-07-26T06:42:55.823Z,2428
2017-07-26T06:43:57.338Z,2392
2017-07-26T06:44:58.850Z,2080
2017-07-26T06:46:00.280Z,1648
2017-07-26T06:47:01.753Z,2088
2017-07-26T06:48:03.368Z,1712
2017-07-26T06:49:04.933Z,1712
2017-07-26T06:50:06.449Z,2180
2017-07-26T06:51:07.959Z,1468
2017-07-26T06:52:09.485Z,1288
2017-07-26T06:53:10.999Z,1328
2017-07-26T06:54:12.532Z,1120
2017-07-26T06:55:14.175Z,1100
2017-07-26T06:56:15.694Z,1016
2017-07-26T06:57:17.202Z,880
2017-07-26T06:58:18.724Z,964
2017-07-26T06:59:20.224Z,1024
2017-07-26T07:00:21.722Z,928
2017-07-26T07:01:23.230Z,944
2017-07-26T07:02:24.742Z,932
2017-07-26T07:03:26.334Z,964
2017-07-26T07:04:27.839Z,1004
2017-07-26T07:05:29.399Z,1056
2017-07-26T07:06:30.912Z,1004
2017-07-26T07:07:32.352Z,1088
2017-07-26T07:08:33.878Z,872
2017-07-26T07:09:35.387Z,936
2017-07-26T07:10:36.982Z,836
2017-07-26T07:11:38.506Z,748
2017-07-26T07:12:39.952Z,724
2017-07-26T07:13:41.461Z,652
2017-07-26T07:14:42.970Z,668
2017-07-26T07:15:44.407Z,672
2017-07-26T07:16:45.916Z,672
2017-07-26T07:17:47.421Z,668
2017-07-26T07:18:48.938Z,712
2017-07-26T07:19:50.457Z,768
2017-07-26T07:20:51.970Z,840
2017-07-26T07:21:53.484Z,872
2017-07-26T07:22:55.007Z,952
2017-07-26T07:23:56.515Z,1024
2017-07-26T07:24:58.014Z,1060
2017-07-26T07:25:59.517Z,1092
2017-07-26T07:27:01.048Z,1108
2017-07-26T07:28:02.712Z,1088
2017-07-26T07:29:04.216Z,1076
2017-07-26T07:30:05.727Z,1024
2017-07-26T07:31:07.241Z,928
2017-07-26T07:32:08.607Z,864
2017-07-26T07:33:10.267Z,880
2017-07-26T07:34:11.780Z,892
2017-07-26T07:35:13.295Z,880
2017-07-26T07:36:14.840Z,904
2017-07-26T07:37:16.369Z,904
2017-07-26T07:38:17.887Z,892
2017-07-26T07:39:19.352Z,936
2017-07-26T07:40:20.870Z,952
2017-07-26T07:41:22.381Z,996
2017-07-26T07:42:23.993Z,1012
2017-07-26T07:43:25.432Z,1052
2017-07-26T07:44:26.889Z,1132
2017-07-26T07:45:28.390Z,1176
2017-07-26T07:46:29.905Z,1068
2017-07-26T07:47:31.445Z,1220
2017-07-26T07:48:32.912Z,1260
2017-07-26T07:49:34.423Z,1216
2017-07-26T07:50:35.930Z,1168
2017-07-26T07:51:37.440Z,1172
2017-07-26T07:52:38.967Z,1208
2017-07-26T07:53:40.487Z,1232
2017-07-26T07:54:42.007Z,1240
2017-07-26T07:55:44.187Z,1216
2017-07-26T07:56:46.193Z,1124
2017-07-26T07:57:47.695Z,1036
2017-07-26T07:58:49.214Z,988
2017-07-26T07:59:50.596Z,988
2017-07-26T08:00:52.226Z,1000
2017-07-26T08:01:53.736Z,1028
2017-07-26T08:02:55.250Z,1056
2017-07-26T08:03:56.756Z,1116
2017-07-26T08:04:58.144Z,1148
2017-07-26T08:05:59.770Z,1212
2017-07-26T08:07:01.281Z,1312
2017-07-26T08:08:02.817Z,1428
2017-07-26T08:09:04.325Z,1456
2017-07-26T08:10:05.834Z,1476
2017-07-26T08:11:07.334Z,1484
2017-07-26T08:12:08.885Z,1452
2017-07-26T08:13:10.411Z,1420
2017-07-26T08:14:11.941Z,1440
2017-07-26T08:15:13.447Z,1464
2017-07-26T08:16:14.961Z,1464
2017-07-26T08:17:16.477Z,1432
2017-07-26T08:18:18.066Z,1404
2017-07-26T08:19:19.584Z,1396
2017-07-26T08:20:21.102Z,1312
2017-07-26T08:21:22.529Z,1248
2017-07-26T08:22:24.052Z,1256
2017-07-26T08:23:25.514Z,1340
2017-07-26T08:24:27.025Z,1512
2017-07-26T08:25:28.533Z,1712
2017-07-26T08:26:30.039Z,1920
2017-07-26T08:27:31.563Z,2200
2017-07-26T08:28:33.210Z,2504
2017-07-26T08:29:34.711Z,2664
2017-07-26T08:30:36.225Z,2636
2017-07-26T08:31:37.738Z,2500
2017-07-26T08:32:39.223Z,2380
2017-07-26T08:33:40.723Z,2320
2017-07-26T08:34:42.234Z,2288
2017-07-26T08:35:43.743Z,2256
2017-07-26T08:36:45.171Z,2124
2017-07-26T08:37:46.663Z,1964
2017-07-26T08:38:48.308Z,1876
2017-07-26T08:39:49.822Z,1848
2017-07-26T08:40:51.409Z,1916
2017-07-26T08:41:52.914Z,1960
2017-07-26T08:42:54.427Z,1948
2017-07-26T08:43:55.859Z,1952
2017-07-26T08:44:57.364Z,2084
2017-07-26T08:45:58.874Z,2232
2017-07-26T08:47:00.389Z,2328
2017-07-26T08:48:01.958Z,2368
2017-07-26T08:49:03.470Z,2428
2017-07-26T08:50:04.975Z,2500
2017-07-26T08:51:06.596Z,2500
2017-07-26T08:52:08.108Z,2500
2017-07-26T08:53:09.620Z,2512
2017-07-26T08:54:11.055Z,2436
2017-07-26T08:55:12.585Z,2372
2017-07-26T08:56:14.033Z,2572
2017-07-26T08:57:15.549Z,2860
2017-07-26T08:58:17.064Z,2984
2017-07-26T08:59:18.657Z,2888
2017-07-26T09:00:20.170Z,2668
2017-07-26T09:01:21.593Z,2412
2017-07-26T09:02:23.099Z,2180
2017-07-26T09:03:24.616Z,1996
2017-07-26T09:04:26.123Z,1844
2017-07-26T09:05:27.779Z,1776
2017-07-26T09:06:29.303Z,1792
2017-07-26T09:07:31.647Z,1840
2017-07-26T09:08:33.176Z,1900
2017-07-26T09:09:34.604Z,1912
2017-07-26T09:10:36.121Z,1924
2017-07-26T09:11:37.621Z,1948
2017-07-26T09:12:39.144Z,2012
2017-07-26T09:13:40.522Z,2044
2017-07-26T09:14:42.156Z,2048
2017-07-26T09:15:43.673Z,2124
2017-07-26T09:16:45.194Z,2296
2017-07-26T09:17:46.700Z,2460
2017-07-26T09:18:48.192Z,2588
2017-07-26T09:19:49.728Z,2768
2017-07-26T09:20:51.247Z,2832
2017-07-26T09:21:52.756Z,2812
2017-07-26T09:22:54.256Z,2808
2017-07-26T09:23:55.773Z,2804
2017-07-26T09:24:57.282Z,2768
2017-07-26T09:25:58.788Z,2744
